createdAt,value
2022-10-01T00:00:22.146Z,1003.50
2022-10-01T00:01:25.271Z,1003.47
2022-10-01T00:02:29.507Z,1003.52
2022-10-01T00:04:04.723Z,1003.47
2022-10-01T00:05:07.468Z,1003.49
2022-10-01T00:06:10.175Z,1003.44
2022-10-01T00:07:44.652Z,1003.39
2022-10-01T00:08:47.415Z,1003.33
2022-10-01T00:09:50.227Z,1003.33
2022-10-01T00:11:24.796Z,1003.21
2022-10-01T00:12:28.585Z,1003.19
2022-10-01T00:13:31.259Z,1003.16
2022-10-01T00:15:13.554Z,1003.14
2022-10-01T00:16:16.949Z,1003.10
2022-10-01T00:17:20.115Z,1003.01
2022-10-01T00:18:54.505Z,1002.97
2022-10-01T00:19:57.279Z,1002.93
2022-10-01T00:21:11.260Z,1002.94
2022-10-01T00:22:45.785Z,1002.89
2022-10-01T00:23:48.546Z,1002.87
2022-10-01T00:24:51.286Z,1002.86
2022-10-01T00:26:25.790Z,1002.77
2022-10-01T00:27:28.794Z,1002.82
2022-10-01T00:28:31.830Z,1002.83
2022-10-01T00:30:06.349Z,1002.80
2022-10-01T00:31:09.211Z,1002.71
2022-10-01T00:32:12.419Z,1002.71
2022-10-01T00:33:47.371Z,1002.68
2022-10-01T00:34:50.106Z,1002.66
2022-10-01T00:35:52.785Z,1002.63
2022-10-01T00:37:27.269Z,1002.61
2022-10-01T00:38:30.149Z,1002.61
2022-10-01T00:39:33.141Z,1002.71
2022-10-01T00:41:07.777Z,1002.56
2022-10-01T00:42:10.780Z,1002.55
2022-10-01T00:43:13.662Z,1002.53
2022-10-01T00:44:48.573Z,1002.48
2022-10-01T00:45:51.901Z,1002.36
2022-10-01T00:46:54.865Z,1002.41
2022-10-01T00:48:29.414Z,1002.29
2022-10-01T00:49:32.202Z,1002.25
2022-10-01T00:50:34.897Z,1002.24
2022-10-01T00:52:09.552Z,1002.23
2022-10-01T00:53:12.242Z,1002.22
2022-10-01T00:54:14.899Z,1002.24
2022-10-01T00:55:49.513Z,1002.18
2022-10-01T00:56:52.313Z,1002.19
2022-10-01T00:57:55.082Z,1002.18
2022-10-01T00:59:29.589Z,1002.12
2022-10-01T01:00:23.556Z,1002.07
2022-10-01T01:01:26.624Z,1001.99
2022-10-01T01:02:30.600Z,1002.02
2022-10-01T01:04:05.580Z,1002.04
2022-10-01T01:05:08.573Z,1001.96
2022-10-01T01:06:11.261Z,1001.95
2022-10-01T01:07:46.138Z,1001.93
2022-10-01T01:08:49.254Z,1001.97
2022-10-01T01:09:52.082Z,1001.84
2022-10-01T01:11:26.598Z,1001.81
2022-10-01T01:12:29.836Z,1001.75
2022-10-01T01:13:32.686Z,1001.70
2022-10-01T01:15:07.209Z,1001.64
2022-10-01T01:16:10.415Z,1001.58
2022-10-01T01:17:13.380Z,1001.47
2022-10-01T01:18:47.946Z,1001.34
2022-10-01T01:19:50.794Z,1001.33
2022-10-01T01:20:53.556Z,1001.26
2022-10-01T01:22:29.082Z,1001.23
2022-10-01T01:23:31.718Z,1001.17
2022-10-01T01:24:34.335Z,1001.13
2022-10-01T01:26:09.206Z,1001.10
2022-10-01T01:27:12.049Z,1001.09
2022-10-01T01:28:14.835Z,1001.02
2022-10-01T01:29:50.095Z,1000.82
2022-10-01T01:30:53.071Z,1000.88
2022-10-01T01:31:56.527Z,1000.87
2022-10-01T01:33:37.638Z,1000.91
2022-10-01T01:34:40.312Z,1000.89
2022-10-01T01:35:43.217Z,1000.92
2022-10-01T01:37:17.741Z,1000.90
2022-10-01T01:38:20.628Z,1000.87
2022-10-01T01:39:23.612Z,1000.88
2022-10-01T01:40:58.440Z,1000.85
2022-10-01T01:42:01.269Z,1000.85
2022-10-01T01:43:04.265Z,1000.84
2022-10-01T01:44:38.880Z,1000.88
2022-10-01T01:45:42.107Z,1000.99
2022-10-01T01:46:45.140Z,1000.83
2022-10-01T01:48:19.751Z,1000.98
2022-10-01T01:49:22.499Z,1000.92
2022-10-01T01:50:25.123Z,1000.92
2022-10-01T01:51:59.638Z,1000.79
2022-10-01T01:53:02.300Z,1000.77
2022-10-01T01:54:05.005Z,1000.70
2022-10-01T01:55:39.516Z,1000.67
2022-10-01T01:56:42.252Z,1000.62
2022-10-01T01:57:44.893Z,1000.63
2022-10-01T01:59:19.461Z,1000.72
2022-10-01T02:00:23.061Z,1000.68
2022-10-01T02:01:25.994Z,1000.63
2022-10-01T02:02:30.342Z,1000.72
2022-10-01T02:04:05.485Z,1000.77
2022-10-01T02:05:08.460Z,1000.72
2022-10-01T02:06:11.403Z,1000.69
2022-10-01T02:07:45.962Z,1000.66
2022-10-01T02:08:48.839Z,1000.66
2022-10-01T02:09:51.562Z,1000.67
2022-10-01T02:11:26.118Z,1000.57
2022-10-01T02:12:29.618Z,1000.61
2022-10-01T02:13:32.603Z,1000.55
2022-10-01T02:15:07.222Z,1000.54
2022-10-01T02:16:10.378Z,1000.55
2022-10-01T02:17:13.667Z,1000.66
2022-10-01T02:18:48.367Z,1000.80
2022-10-01T02:19:50.993Z,1000.83
2022-10-01T02:20:53.687Z,1000.87
2022-10-01T02:22:28.682Z,1000.81
2022-10-01T02:23:31.612Z,1000.71
2022-10-01T02:24:34.454Z,1000.73
2022-10-01T02:26:08.945Z,1000.78
2022-10-01T02:27:11.579Z,1000.72
2022-10-01T02:28:14.759Z,1000.63
2022-10-01T02:29:49.577Z,1000.65
2022-10-01T02:30:52.493Z,1000.53
2022-10-01T02:31:55.714Z,1000.51
2022-10-01T02:33:30.168Z,1000.43
2022-10-01T02:34:32.934Z,1000.42
2022-10-01T02:35:35.971Z,1000.44
2022-10-01T02:37:10.622Z,1000.34
2022-10-01T02:38:13.409Z,1000.34
2022-10-01T02:39:16.413Z,1000.36
2022-10-01T02:40:50.924Z,1000.34
2022-10-01T02:41:53.616Z,1000.33
2022-10-01T02:42:56.562Z,1000.26
2022-10-01T02:44:35.123Z,1000.22
2022-10-01T02:45:38.236Z,1000.27
2022-10-01T02:46:41.331Z,1000.24
2022-10-01T02:48:15.813Z,1000.18
2022-10-01T02:49:18.472Z,1000.16
2022-10-01T02:50:27.222Z,1000.12
2022-10-01T02:52:01.687Z,1000.12
2022-10-01T02:53:04.463Z,1000.14
2022-10-01T02:54:07.189Z,1000.09
2022-10-01T02:55:41.840Z,1000.04
2022-10-01T02:56:56.239Z,1000.12
2022-10-01T02:57:59.259Z,1000.06
2022-10-01T02:59:33.842Z,1000.11
2022-10-01T03:00:23.912Z,1000.11
2022-10-01T03:01:26.818Z,1000.12
2022-10-01T03:02:30.588Z,1000.13
2022-10-01T03:04:05.518Z,1000.11
2022-10-01T03:05:08.507Z,1000.10
2022-10-01T03:06:11.160Z,1000.06
2022-10-01T03:07:45.802Z,1000.01
2022-10-01T03:08:48.811Z,1000.02
2022-10-01T03:09:51.640Z,1000.03
2022-10-01T03:11:32.802Z,999.99
2022-10-01T03:12:36.036Z,999.95
2022-10-01T03:13:38.828Z,1000.01
2022-10-01T03:15:13.181Z,999.98
2022-10-01T03:16:16.683Z,999.91
2022-10-01T03:17:19.660Z,999.94
2022-10-01T03:18:54.137Z,999.90
2022-10-01T03:19:57.108Z,999.89
2022-10-01T03:20:59.900Z,999.85
2022-10-01T03:22:34.506Z,999.86
2022-10-01T03:23:37.144Z,999.89
2022-10-01T03:24:40.093Z,999.84
2022-10-01T03:26:14.646Z,999.91
2022-10-01T03:27:17.436Z,999.81
2022-10-01T03:28:20.500Z,999.82
2022-10-01T03:29:55.360Z,999.81
2022-10-01T03:30:58.151Z,999.81
2022-10-01T03:32:01.277Z,999.76
2022-10-01T03:33:36.176Z,999.86
2022-10-01T03:34:38.799Z,999.76
2022-10-01T03:35:41.574Z,999.76
2022-10-01T03:37:16.425Z,999.75
2022-10-01T03:38:19.114Z,999.72
2022-10-01T03:39:21.903Z,999.73
2022-10-01T03:40:56.581Z,999.72
2022-10-01T03:41:59.586Z,999.71
2022-10-01T03:43:02.275Z,999.75
2022-10-01T03:44:37.089Z,999.68
2022-10-01T03:45:40.076Z,999.59
2022-10-01T03:46:43.280Z,999.64
2022-10-01T03:48:17.836Z,999.63
2022-10-01T03:49:20.551Z,999.63
2022-10-01T03:50:23.250Z,999.59
2022-10-01T03:51:57.729Z,999.66
2022-10-01T03:53:00.661Z,999.67
2022-10-01T03:54:03.598Z,999.65
2022-10-01T03:55:38.090Z,999.60
2022-10-01T03:56:40.737Z,999.59
2022-10-01T03:57:43.692Z,999.59
2022-10-01T03:59:18.457Z,999.60
2022-10-01T04:00:23.368Z,999.56
2022-10-01T04:01:26.479Z,999.59
2022-10-01T04:02:31.814Z,999.53
2022-10-01T04:04:07.119Z,999.54
2022-10-01T04:05:52.722Z,999.47
2022-10-01T04:06:55.892Z,999.53
2022-10-01T04:07:58.967Z,999.47
2022-10-01T04:09:35.502Z,999.47
2022-10-01T04:10:38.783Z,999.49
2022-10-01T04:11:42.850Z,999.54
2022-10-01T04:13:17.690Z,999.47
2022-10-01T04:14:20.614Z,999.47
2022-10-01T04:15:23.827Z,999.46
2022-10-01T04:16:59.402Z,999.40
2022-10-01T04:18:02.459Z,999.40
2022-10-01T04:19:05.379Z,999.31
2022-10-01T04:20:40.240Z,999.40
2022-10-01T04:21:44.095Z,999.45
2022-10-01T04:22:47.109Z,999.44
2022-10-01T04:24:21.897Z,999.47
2022-10-01T04:25:24.816Z,999.50
2022-10-01T04:26:27.785Z,999.47
2022-10-01T04:28:02.612Z,999.46
2022-10-01T04:29:05.926Z,999.51
2022-10-01T04:30:08.940Z,999.52
2022-10-01T04:31:45.008Z,999.53
2022-10-01T04:32:48.331Z,999.55
2022-10-01T04:33:51.137Z,999.49
2022-10-01T04:35:26.013Z,999.52
2022-10-01T04:36:28.944Z,999.54
2022-10-01T04:37:31.897Z,999.57
2022-10-01T04:39:13.282Z,999.56
2022-10-01T04:40:15.976Z,999.59
2022-10-01T04:41:18.802Z,999.55
2022-10-01T04:42:54.303Z,999.53
2022-10-01T04:43:57.461Z,999.52
2022-10-01T04:45:00.327Z,999.50
2022-10-01T04:46:35.753Z,999.54
2022-10-01T04:47:43.205Z,999.55
2022-10-01T04:48:46.344Z,999.50
2022-10-01T04:50:21.469Z,999.51
2022-10-01T04:51:24.600Z,999.51
2022-10-01T04:52:28.009Z,999.46
2022-10-01T04:54:02.914Z,999.59
2022-10-01T04:55:06.004Z,999.55
2022-10-01T04:56:08.826Z,999.59
2022-10-01T04:57:43.649Z,999.59
2022-10-01T04:58:46.864Z,999.56
2022-10-01T04:59:49.888Z,999.56
2022-10-01T05:00:23.426Z,999.65
2022-10-01T05:01:26.967Z,999.68
2022-10-01T05:02:31.672Z,999.66
2022-10-01T05:04:06.849Z,999.71
2022-10-01T05:05:09.735Z,999.69
2022-10-01T05:06:12.662Z,999.72
2022-10-01T05:07:47.285Z,999.76
2022-10-01T05:08:50.232Z,999.81
2022-10-01T05:09:53.286Z,999.80
2022-10-01T05:11:28.142Z,999.82
2022-10-01T05:12:35.898Z,999.85
2022-10-01T05:13:38.936Z,999.84
2022-10-01T05:15:13.827Z,999.95
2022-10-01T05:16:17.126Z,999.96
2022-10-01T05:17:20.374Z,999.98
2022-10-01T05:18:55.151Z,1000.04
2022-10-01T05:19:58.384Z,1000.05
2022-10-01T05:21:01.356Z,1000.06
2022-10-01T05:22:36.198Z,1000.08
2022-10-01T05:23:39.119Z,1000.07
2022-10-01T05:24:41.946Z,1000.09
2022-10-01T05:26:16.511Z,1000.12
2022-10-01T05:27:19.437Z,1000.11
2022-10-01T05:28:27.974Z,1000.09
2022-10-01T05:30:03.171Z,1000.08
2022-10-01T05:31:06.181Z,1000.08
2022-10-01T05:32:09.270Z,1000.10
2022-10-01T05:33:44.014Z,1000.09
2022-10-01T05:34:49.992Z,1000.05
2022-10-01T05:35:56.592Z,1000.09
2022-10-01T05:37:31.414Z,1000.07
2022-10-01T05:38:34.508Z,1000.17
2022-10-01T05:39:37.379Z,1000.15
2022-10-01T05:41:12.380Z,1000.18
2022-10-01T05:42:18.058Z,1000.25
2022-10-01T05:43:21.081Z,1000.25
2022-10-01T05:44:55.968Z,1000.29
2022-10-01T05:45:58.930Z,1000.32
2022-10-01T05:47:02.243Z,1000.36
2022-10-01T05:48:37.251Z,1000.35
2022-10-01T05:49:40.436Z,1000.35
2022-10-01T05:50:43.674Z,1000.35
2022-10-01T05:52:18.941Z,1000.39
2022-10-01T05:53:21.962Z,1000.38
2022-10-01T05:54:24.849Z,1000.39
2022-10-01T05:55:59.661Z,1000.32
2022-10-01T05:57:02.560Z,1000.38
2022-10-01T05:58:05.519Z,1000.37
2022-10-01T05:59:43.459Z,1000.42
2022-10-01T06:00:24.072Z,1000.37
2022-10-01T06:01:26.872Z,1000.40
2022-10-01T06:02:31.039Z,1000.44
2022-10-01T06:04:06.921Z,1000.49
2022-10-01T06:05:09.674Z,1000.47
2022-10-01T06:06:13.058Z,1000.51
2022-10-01T06:07:47.991Z,1000.52
2022-10-01T06:08:50.957Z,1000.45
2022-10-01T06:09:53.850Z,1000.48
2022-10-01T06:11:28.558Z,1000.49
2022-10-01T06:12:31.911Z,1000.51
2022-10-01T06:13:34.653Z,1000.50
2022-10-01T06:15:09.780Z,1000.48
2022-10-01T06:16:13.131Z,1000.51
2022-10-01T06:17:16.361Z,1000.50
2022-10-01T06:18:51.135Z,1000.50
2022-10-01T06:19:54.601Z,1000.53
2022-10-01T06:20:57.614Z,1000.54
2022-10-01T06:22:33.277Z,1000.52
2022-10-01T06:23:36.307Z,1000.56
2022-10-01T06:24:39.156Z,1000.64
2022-10-01T06:26:19.660Z,1000.60
2022-10-01T06:27:22.609Z,1000.64
2022-10-01T06:28:25.777Z,1000.65
2022-10-01T06:30:00.902Z,1000.63
2022-10-01T06:31:03.815Z,1000.66
2022-10-01T06:32:07.270Z,1000.66
2022-10-01T06:33:41.942Z,1000.67
2022-10-01T06:34:44.775Z,1000.69
2022-10-01T06:35:47.861Z,1000.70
2022-10-01T06:37:22.638Z,1000.71
2022-10-01T06:38:25.518Z,1000.73
2022-10-01T06:39:28.432Z,1000.70
2022-10-01T06:41:03.330Z,1000.72
2022-10-01T06:42:06.290Z,1000.71
2022-10-01T06:43:09.180Z,1000.72
2022-10-01T06:44:43.913Z,1000.71
2022-10-01T06:45:47.502Z,1000.72
2022-10-01T06:46:50.649Z,1000.69
2022-10-01T06:48:26.063Z,1000.67
2022-10-01T06:49:28.982Z,1000.73
2022-10-01T06:50:34.072Z,1000.74
2022-10-01T06:52:08.921Z,1000.76
2022-10-01T06:53:11.916Z,1000.76
2022-10-01T06:54:14.857Z,1000.72
2022-10-01T06:55:49.539Z,1000.74
2022-10-01T06:56:52.687Z,1000.76
2022-10-01T06:57:55.661Z,1000.77
2022-10-01T06:59:30.418Z,1000.79
2022-10-01T07:00:23.299Z,1000.78
2022-10-01T07:01:26.762Z,1000.80
2022-10-01T07:02:31.479Z,1000.79
2022-10-01T07:04:06.768Z,1000.83
2022-10-01T07:05:09.787Z,1000.84
2022-10-01T07:06:12.738Z,1000.86
2022-10-01T07:07:47.406Z,1000.86
2022-10-01T07:08:50.446Z,1000.89
2022-10-01T07:09:53.485Z,1000.90
2022-10-01T07:11:28.488Z,1000.90
2022-10-01T07:12:31.749Z,1000.92
2022-10-01T07:13:34.624Z,1000.97
2022-10-01T07:15:12.839Z,1000.97
2022-10-01T07:16:16.220Z,1000.96
2022-10-01T07:17:19.639Z,1000.97
2022-10-01T07:18:54.848Z,1001.04
2022-10-01T07:19:57.939Z,1001.03
2022-10-01T07:21:01.062Z,1001.01
2022-10-01T07:22:35.876Z,1001.01
2022-10-01T07:23:38.636Z,1001.07
2022-10-01T07:24:41.548Z,1001.05
2022-10-01T07:26:16.309Z,1001.04
2022-10-01T07:27:19.069Z,1001.01
2022-10-01T07:28:22.629Z,1001.01
2022-10-01T07:29:57.696Z,1001.03
2022-10-01T07:31:00.738Z,1001.00
2022-10-01T07:32:03.931Z,1001.02
2022-10-01T07:33:38.788Z,1001.08
2022-10-01T07:34:41.843Z,1001.09
2022-10-01T07:35:44.857Z,1001.11
2022-10-01T07:37:19.640Z,1001.15
2022-10-01T07:38:22.732Z,1001.16
2022-10-01T07:39:25.495Z,1001.17
2022-10-01T07:41:04.989Z,1001.22
2022-10-01T07:42:07.788Z,1001.23
2022-10-01T07:43:10.731Z,1001.25
2022-10-01T07:44:45.673Z,1001.23
2022-10-01T07:45:48.806Z,1001.24
2022-10-01T07:46:52.403Z,1001.24
2022-10-01T07:48:27.248Z,1001.27
2022-10-01T07:49:30.164Z,1001.24
2022-10-01T07:50:33.138Z,1001.26
2022-10-01T07:52:13.009Z,1001.31
2022-10-01T07:53:16.284Z,1001.34
2022-10-01T07:54:19.252Z,1001.33
2022-10-01T07:55:53.911Z,1001.36
2022-10-01T07:56:56.667Z,1001.40
2022-10-01T07:57:59.677Z,1001.41
2022-10-01T07:59:34.775Z,1001.43
2022-10-01T08:00:23.122Z,1001.42
2022-10-01T08:01:26.423Z,1001.50
2022-10-01T08:02:30.964Z,1001.51
2022-10-01T08:04:06.249Z,1001.54
2022-10-01T08:05:09.143Z,1001.55
2022-10-01T08:06:12.006Z,1001.56
2022-10-01T08:07:52.511Z,1001.61
2022-10-01T08:08:55.464Z,1001.64
2022-10-01T08:09:58.311Z,1001.65
2022-10-01T08:11:33.172Z,1001.57
2022-10-01T08:12:36.264Z,1001.59
2022-10-01T08:13:39.056Z,1001.59
2022-10-01T08:15:13.863Z,1001.64
2022-10-01T08:16:17.081Z,1001.64
2022-10-01T08:17:20.164Z,1001.67
2022-10-01T08:18:58.813Z,1001.65
2022-10-01T08:20:01.734Z,1001.63
2022-10-01T08:21:04.562Z,1001.66
2022-10-01T08:22:42.643Z,1001.64
2022-10-01T08:23:45.542Z,1001.64
2022-10-01T08:24:48.473Z,1001.60
2022-10-01T08:26:23.420Z,1001.64
2022-10-01T08:27:26.219Z,1001.61
2022-10-01T08:28:29.817Z,1001.65
2022-10-01T08:30:08.828Z,1001.72
2022-10-01T08:31:11.673Z,1001.77
2022-10-01T08:32:15.297Z,1001.75
2022-10-01T08:33:50.164Z,1001.79
2022-10-01T08:34:56.550Z,1001.76
2022-10-01T08:35:59.908Z,1001.77
2022-10-01T08:37:34.873Z,1001.78
2022-10-01T08:38:38.017Z,1001.77
2022-10-01T08:39:40.893Z,1001.81
2022-10-01T08:41:17.518Z,1001.86
2022-10-01T08:42:22.738Z,1001.82
2022-10-01T08:43:25.627Z,1001.87
2022-10-01T08:45:00.399Z,1001.90
2022-10-01T08:46:03.315Z,1001.89
2022-10-01T08:47:06.881Z,1001.89
2022-10-01T08:48:41.533Z,1001.98
2022-10-01T08:49:49.069Z,1001.96
2022-10-01T08:50:51.949Z,1001.93
2022-10-01T08:52:27.576Z,1001.99
2022-10-01T08:53:30.417Z,1001.97
2022-10-01T08:54:33.267Z,1001.97
2022-10-01T08:56:08.016Z,1002.00
2022-10-01T08:57:10.931Z,1001.97
2022-10-01T08:58:14.121Z,1001.99
2022-10-01T08:59:49.013Z,1002.00
2022-10-01T09:00:23.977Z,1002.00
2022-10-01T09:01:27.405Z,1001.99
2022-10-01T09:02:31.652Z,1002.00
2022-10-01T09:04:06.721Z,1002.00
2022-10-01T09:05:13.343Z,1002.01
2022-10-01T09:06:16.150Z,1002.02
2022-10-01T09:07:51.144Z,1002.05
2022-10-01T09:08:54.035Z,1002.11
2022-10-01T09:09:57.030Z,1002.07
2022-10-01T09:11:32.312Z,1002.15
2022-10-01T09:12:35.486Z,1002.15
2022-10-01T09:13:38.364Z,1002.18
2022-10-01T09:15:18.485Z,1002.26
2022-10-01T09:16:21.761Z,1002.28
2022-10-01T09:17:25.265Z,1002.29
2022-10-01T09:19:00.247Z,1002.42
2022-10-01T09:20:03.353Z,1002.38
2022-10-01T09:21:06.272Z,1002.36
2022-10-01T09:22:41.280Z,1002.45
2022-10-01T09:23:44.377Z,1002.54
2022-10-01T09:24:47.360Z,1002.54
2022-10-01T09:26:25.634Z,1002.58
2022-10-01T09:27:28.926Z,1002.61
2022-10-01T09:28:32.689Z,1002.59
2022-10-01T09:30:07.878Z,1002.60
2022-10-01T09:31:10.974Z,1002.56
2022-10-01T09:32:14.604Z,1002.57
2022-10-01T09:33:49.339Z,1002.53
2022-10-01T09:34:52.488Z,1002.52
2022-10-01T09:36:01.616Z,1002.53
2022-10-01T09:37:36.402Z,1002.53
2022-10-01T09:38:39.492Z,1002.48
2022-10-01T09:39:42.337Z,1002.52
2022-10-01T09:41:17.296Z,1002.55
2022-10-01T09:42:20.837Z,1002.53
2022-10-01T09:43:23.856Z,1002.54
2022-10-01T09:45:04.083Z,1002.57
2022-10-01T09:46:07.182Z,1002.61
2022-10-01T09:47:10.758Z,1002.58
2022-10-01T09:48:45.736Z,1002.54
2022-10-01T09:49:48.585Z,1002.58
2022-10-01T09:50:51.757Z,1002.53
2022-10-01T09:52:32.217Z,1002.56
2022-10-01T09:53:35.356Z,1002.59
2022-10-01T09:54:38.118Z,1002.56
2022-10-01T09:56:13.065Z,1002.62
2022-10-01T09:57:16.054Z,1002.64
2022-10-01T09:58:18.917Z,1002.66
2022-10-01T09:59:53.611Z,1002.67
2022-10-01T10:00:23.440Z,1002.67
2022-10-01T10:01:26.326Z,1002.69
2022-10-01T10:02:31.635Z,1002.69
2022-10-01T10:04:17.916Z,1002.67
2022-10-01T10:05:22.827Z,1002.69
2022-10-01T10:06:25.803Z,1002.72
2022-10-01T10:08:02.280Z,1002.70
2022-10-01T10:09:05.206Z,1002.77
2022-10-01T10:10:08.146Z,1002.77
2022-10-01T10:11:48.996Z,1002.75
2022-10-01T10:12:52.094Z,1002.80
2022-10-01T10:13:55.161Z,1002.73
2022-10-01T10:15:30.106Z,1002.75
2022-10-01T10:16:33.936Z,1002.80
2022-10-01T10:17:37.140Z,1002.79
2022-10-01T10:19:16.007Z,1002.77
2022-10-01T10:20:19.001Z,1002.86
2022-10-01T10:21:21.831Z,1002.84
2022-10-01T10:22:56.638Z,1002.84
2022-10-01T10:23:59.588Z,1002.85
2022-10-01T10:25:02.646Z,1002.78
2022-10-01T10:26:38.616Z,1002.82
2022-10-01T10:27:41.957Z,1002.83
2022-10-01T10:28:50.754Z,1002.83
2022-10-01T10:30:26.045Z,1002.83
2022-10-01T10:31:29.055Z,1002.88
2022-10-01T10:32:32.491Z,1002.86
2022-10-01T10:34:07.573Z,1002.89
2022-10-01T10:35:14.436Z,1002.89
2022-10-01T10:36:17.427Z,1002.92
2022-10-01T10:37:52.787Z,1002.93
2022-10-01T10:38:55.590Z,1002.99
2022-10-01T10:39:58.307Z,1003.02
2022-10-01T10:41:34.049Z,1003.06
2022-10-01T10:42:37.270Z,1003.04
2022-10-01T10:43:40.237Z,1003.04
2022-10-01T10:45:15.019Z,1003.05
2022-10-01T10:46:18.635Z,1003.03
2022-10-01T10:47:22.217Z,1003.06
2022-10-01T10:48:57.017Z,1003.03
2022-10-01T10:49:59.839Z,1003.04
2022-10-01T10:51:02.738Z,1003.14
2022-10-01T10:52:37.608Z,1003.13
2022-10-01T10:53:43.476Z,1003.17
2022-10-01T10:54:46.487Z,1003.16
2022-10-01T10:56:21.347Z,1003.20
2022-10-01T10:57:24.900Z,1003.20
2022-10-01T10:58:27.780Z,1003.23
2022-10-01T11:00:23.071Z,1003.22
2022-10-01T11:01:26.056Z,1003.27
2022-10-01T11:02:30.287Z,1003.24
2022-10-01T11:04:05.674Z,1003.23
2022-10-01T11:05:08.883Z,1003.24
2022-10-01T11:06:11.638Z,1003.21
2022-10-01T11:07:46.591Z,1003.22
2022-10-01T11:08:49.419Z,1003.25
2022-10-01T11:09:52.530Z,1003.23
2022-10-01T11:11:27.643Z,1003.28
2022-10-01T11:12:30.602Z,1003.29
2022-10-01T11:13:33.707Z,1003.31
2022-10-01T11:15:15.102Z,1003.34
2022-10-01T11:16:18.408Z,1003.30
2022-10-01T11:17:22.336Z,1003.35
2022-10-01T11:18:57.448Z,1003.41
2022-10-01T11:20:00.564Z,1003.40
2022-10-01T11:21:06.996Z,1003.40
2022-10-01T11:22:41.954Z,1003.43
2022-10-01T11:23:44.783Z,1003.41
2022-10-01T11:24:47.747Z,1003.42
2022-10-01T11:26:22.919Z,1003.38
2022-10-01T11:27:26.152Z,1003.39
2022-10-01T11:28:29.335Z,1003.39
2022-10-01T11:30:04.075Z,1003.46
2022-10-01T11:31:07.091Z,1003.50
2022-10-01T11:32:10.238Z,1003.52
2022-10-01T11:33:45.221Z,1003.42
2022-10-01T11:34:48.192Z,1003.52
2022-10-01T11:35:51.188Z,1003.59
2022-10-01T11:37:27.629Z,1003.59
2022-10-01T11:38:30.398Z,1003.64
2022-10-01T11:39:33.239Z,1003.59
2022-10-01T11:41:08.278Z,1003.66
2022-10-01T11:42:11.179Z,1003.61
2022-10-01T11:43:14.005Z,1003.71
2022-10-01T11:44:49.013Z,1003.68
2022-10-01T11:45:57.944Z,1003.74
2022-10-01T11:47:01.254Z,1003.73
2022-10-01T11:48:35.927Z,1003.71
2022-10-01T11:49:39.013Z,1003.73
2022-10-01T11:50:45.189Z,1003.75
2022-10-01T11:52:19.904Z,1003.83
2022-10-01T11:53:23.039Z,1003.88
2022-10-01T11:54:26.267Z,1003.83
2022-10-01T11:56:01.112Z,1003.92
2022-10-01T11:57:03.953Z,1003.94
2022-10-01T11:58:06.822Z,1003.88
2022-10-01T11:59:41.886Z,1003.87
2022-10-01T12:00:27.232Z,1004.00
2022-10-01T12:01:30.624Z,1003.98
2022-10-01T12:02:34.165Z,1004.04
2022-10-01T12:04:09.257Z,1003.97
2022-10-01T12:05:12.522Z,1004.04
2022-10-01T12:06:15.936Z,1004.06
2022-10-01T12:07:59.102Z,1004.08
2022-10-01T12:09:02.277Z,1004.10
2022-10-01T12:10:05.304Z,1004.05
2022-10-01T12:11:40.523Z,1004.11
2022-10-01T12:12:43.556Z,1004.20
2022-10-01T12:13:46.541Z,1004.21
2022-10-01T12:15:21.541Z,1004.31
2022-10-01T12:16:24.651Z,1004.27
2022-10-01T12:17:28.589Z,1004.22
2022-10-01T12:19:03.474Z,1004.27
2022-10-01T12:20:06.500Z,1004.23
2022-10-01T12:21:09.549Z,1004.26
2022-10-01T12:22:44.544Z,1004.47
2022-10-01T12:23:47.498Z,1004.47
2022-10-01T12:24:50.305Z,1004.47
2022-10-01T12:26:25.201Z,1004.52
2022-10-01T12:27:29.236Z,1004.55
2022-10-01T12:28:32.465Z,1004.56
2022-10-01T12:30:18.429Z,1004.59
2022-10-01T12:31:21.800Z,1004.59
2022-10-01T12:32:25.387Z,1004.59
2022-10-01T12:34:00.332Z,1004.65
2022-10-01T12:35:05.801Z,1004.69
2022-10-01T12:36:08.952Z,1004.71
2022-10-01T12:37:44.023Z,1004.76
2022-10-01T12:38:47.236Z,1004.75
2022-10-01T12:39:50.250Z,1004.77
2022-10-01T12:41:25.162Z,1004.77
2022-10-01T12:42:28.058Z,1004.81
2022-10-01T12:43:30.968Z,1004.79
2022-10-01T12:45:05.857Z,1004.73
2022-10-01T12:46:08.885Z,1004.78
2022-10-01T12:47:12.132Z,1004.76
2022-10-01T12:48:46.956Z,1004.77
2022-10-01T12:49:49.886Z,1004.81
2022-10-01T12:50:52.609Z,1004.85
2022-10-01T12:52:27.480Z,1004.90
2022-10-01T12:53:30.432Z,1004.92
2022-10-01T12:54:33.311Z,1004.95
2022-10-01T12:56:08.358Z,1004.96
2022-10-01T12:57:11.478Z,1004.91
2022-10-01T12:58:14.688Z,1004.98
2022-10-01T12:59:49.488Z,1005.00
2022-10-01T13:00:23.615Z,1005.05
2022-10-01T13:01:26.919Z,1004.99
2022-10-01T13:02:30.511Z,1005.08
2022-10-01T13:04:09.249Z,1005.11
2022-10-01T13:05:12.162Z,1005.11
2022-10-01T13:06:15.175Z,1005.06
2022-10-01T13:07:50.706Z,1005.03
2022-10-01T13:08:53.793Z,1005.07
2022-10-01T13:10:00.455Z,1005.05
2022-10-01T13:11:35.084Z,1005.07
2022-10-01T13:12:38.109Z,1005.17
2022-10-01T13:13:41.024Z,1005.07
2022-10-01T13:15:15.759Z,1005.12
2022-10-01T13:16:18.822Z,1005.12
2022-10-01T13:17:22.396Z,1005.11
2022-10-01T13:19:03.711Z,1005.15
2022-10-01T13:20:06.893Z,1005.13
2022-10-01T13:21:10.092Z,1005.18
2022-10-01T13:22:45.103Z,1005.12
2022-10-01T13:23:48.059Z,1005.26
2022-10-01T13:24:51.194Z,1005.31
2022-10-01T13:26:26.591Z,1005.30
2022-10-01T13:27:30.381Z,1005.34
2022-10-01T13:28:33.758Z,1005.36
2022-10-01T13:30:08.983Z,1005.42
2022-10-01T13:31:12.135Z,1005.44
2022-10-01T13:32:15.462Z,1005.53
2022-10-01T13:33:50.370Z,1005.52
2022-10-01T13:34:53.162Z,1005.48
2022-10-01T13:35:56.158Z,1005.50
2022-10-01T13:37:31.574Z,1005.51
2022-10-01T13:38:34.603Z,1005.64
2022-10-01T13:39:45.301Z,1005.61
2022-10-01T13:41:20.054Z,1005.72
2022-10-01T13:42:23.828Z,1005.65
2022-10-01T13:43:26.817Z,1005.71
2022-10-01T13:45:01.566Z,1005.73
2022-10-01T13:46:09.112Z,1005.71
2022-10-01T13:47:12.613Z,1005.69
2022-10-01T13:48:47.703Z,1005.70
2022-10-01T13:49:50.487Z,1005.78
2022-10-01T13:50:53.674Z,1005.76
2022-10-01T13:52:28.542Z,1005.76
2022-10-01T13:53:31.545Z,1005.74
2022-10-01T13:54:34.454Z,1005.76
2022-10-01T13:56:09.594Z,1005.84
2022-10-01T13:57:12.570Z,1005.79
2022-10-01T13:58:15.563Z,1005.81
2022-10-01T13:59:50.535Z,1005.81
2022-10-01T14:00:22.896Z,1005.81
2022-10-01T14:01:30.380Z,1005.84
2022-10-01T14:02:34.222Z,1005.88
2022-10-01T14:04:09.565Z,1005.90
2022-10-01T14:05:12.447Z,1005.97
2022-10-01T14:06:15.408Z,1006.03
2022-10-01T14:07:50.703Z,1006.04
2022-10-01T14:08:58.018Z,1006.04
2022-10-01T14:10:01.055Z,1006.09
2022-10-01T14:11:36.026Z,1006.10
2022-10-01T14:12:39.053Z,1006.15
2022-10-01T14:13:42.159Z,1006.15
2022-10-01T14:15:17.143Z,1006.17
2022-10-01T14:16:21.094Z,1006.19
2022-10-01T14:17:24.468Z,1006.18
2022-10-01T14:18:59.615Z,1006.26
2022-10-01T14:20:02.645Z,1006.25
2022-10-01T14:21:05.478Z,1006.22
2022-10-01T14:22:40.519Z,1006.31
2022-10-01T14:23:43.744Z,1006.34
2022-10-01T14:24:46.814Z,1006.35
2022-10-01T14:26:21.797Z,1006.39
2022-10-01T14:27:25.496Z,1006.42
2022-10-01T14:28:28.945Z,1006.41
2022-10-01T14:30:04.156Z,1006.44
2022-10-01T14:31:07.345Z,1006.51
2022-10-01T14:32:10.971Z,1006.50
2022-10-01T14:33:45.993Z,1006.53
2022-10-01T14:34:49.065Z,1006.51
2022-10-01T14:35:52.121Z,1006.55
2022-10-01T14:37:28.812Z,1006.55
2022-10-01T14:38:31.535Z,1006.59
2022-10-01T14:39:34.520Z,1006.62
2022-10-01T14:41:09.536Z,1006.58
2022-10-01T14:42:22.416Z,1006.56
2022-10-01T14:43:25.438Z,1006.61
2022-10-01T14:45:00.332Z,1006.58
2022-10-01T14:46:03.577Z,1006.60
2022-10-01T14:47:06.660Z,1006.59
2022-10-01T14:48:41.237Z,1006.64
2022-10-01T14:49:44.036Z,1006.66
2022-10-01T14:50:49.201Z,1006.67
2022-10-01T14:52:23.898Z,1006.70
2022-10-01T14:53:26.790Z,1006.71